createdAt,value
2018-09-27T00:03:37.679Z,16.40
2018-09-27T00:08:41.691Z,16.30
2018-09-27T00:13:44.922Z,16.30
2018-09-27T00:18:48.164Z,16.50
2018-09-27T00:23:51.438Z,16.10
2018-09-27T00:28:54.667Z,16.30
2018-09-27T00:33:58.139Z,16.40
2018-09-27T00:39:01.419Z,16.30
2018-09-27T00:44:04.736Z,16.40
2018-09-27T00:49:08.066Z,16.20
2018-09-27T00:54:11.303Z,16.30
2018-09-27T00:59:14.523Z,16.40
2018-09-27T01:04:17.771Z,16.30
2018-09-27T01:09:21.003Z,16.30
2018-09-27T01:14:24.239Z,16.30
2018-09-27T01:19:27.460Z,16.10
2018-09-27T01:24:30.699Z,16.10
2018-09-27T01:29:33.908Z,16.30
2018-09-27T01:34:37.131Z,16.40
2018-09-27T01:39:40.354Z,16.10
2018-09-27T01:44:43.572Z,16.20
2018-09-27T01:49:46.859Z,16.40
2018-09-27T01:54:50.063Z,16.30
2018-09-27T01:59:53.282Z,16.10
2018-09-27T02:04:56.524Z,16.20
2018-09-27T02:09:59.751Z,16.30
2018-09-27T02:15:02.971Z,16.30
2018-09-27T02:20:06.251Z,16.40
2018-09-27T02:25:09.660Z,16.20
2018-09-27T02:30:12.891Z,16.20
2018-09-27T02:35:16.112Z,16.30
2018-09-27T02:40:19.416Z,16.20
2018-09-27T02:45:22.659Z,16.40
2018-09-27T02:50:25.883Z,16.30
2018-09-27T02:55:29.102Z,16.30
2018-09-27T03:00:32.328Z,16.20
2018-09-27T03:05:35.567Z,16.20
2018-09-27T03:10:38.815Z,16.50
2018-09-27T03:15:42.064Z,16.20
2018-09-27T03:20:45.412Z,16.30
2018-09-27T03:25:48.606Z,16.60
2018-09-27T03:30:51.880Z,16.30
2018-09-27T03:35:55.111Z,16.20
2018-09-27T03:40:58.392Z,16.10
2018-09-27T03:46:01.644Z,16.60
2018-09-27T03:51:04.933Z,16.60
2018-09-27T03:56:08.256Z,16.40
2018-09-27T04:01:11.480Z,16.60
2018-09-27T04:06:14.709Z,16.60
2018-09-27T04:11:17.944Z,16.30
2018-09-27T04:16:21.195Z,16.20
2018-09-27T04:21:24.424Z,16.40
2018-09-27T04:26:27.658Z,16.20
2018-09-27T04:31:30.867Z,16.60
2018-09-27T04:36:34.083Z,16.10
2018-09-27T04:41:37.531Z,16.10
2018-09-27T04:46:40.774Z,16.20
2018-09-27T04:51:44.044Z,16.10
2018-09-27T04:56:47.227Z,16.20
2018-09-27T05:01:50.467Z,16.20
2018-09-27T05:06:53.724Z,16.20
2018-09-27T05:11:56.963Z,16.40
2018-09-27T05:17:00.199Z,15.90
2018-09-27T05:22:03.457Z,16.10
2018-09-27T05:27:06.674Z,16.00
2018-09-27T05:32:09.904Z,16.20
2018-09-27T05:37:13.151Z,15.90
2018-09-27T05:42:16.543Z,16.20
2018-09-27T05:47:19.763Z,16.20
2018-09-27T05:52:22.972Z,16.00
2018-09-27T05:57:26.213Z,16.10
2018-09-27T06:02:29.391Z,16.00
2018-09-27T06:07:32.609Z,16.10
2018-09-27T06:12:35.826Z,15.80
2018-09-27T06:17:39.225Z,16.20
2018-09-27T06:22:42.448Z,16.00
2018-09-27T06:27:45.695Z,16.00
2018-09-27T06:32:48.920Z,15.90
2018-09-27T06:37:52.168Z,15.80
2018-09-27T06:42:55.412Z,16.00
2018-09-27T06:47:58.639Z,15.90
2018-09-27T06:53:01.928Z,16.00
2018-09-27T06:58:05.204Z,16.10
2018-09-27T07:03:08.448Z,15.90
2018-09-27T07:08:11.676Z,16.00
2018-09-27T07:13:14.896Z,15.80
2018-09-27T07:18:18.119Z,15.80
2018-09-27T07:23:21.346Z,16.20
2018-09-27T07:28:24.559Z,16.10
2018-09-27T07:33:27.825Z,16.20
2018-09-27T07:38:31.093Z,16.10
2018-09-27T07:43:34.301Z,16.00
2018-09-27T07:48:37.570Z,15.80
2018-09-27T07:53:40.763Z,15.90
2018-09-27T07:58:44.037Z,15.80
2018-09-27T08:03:47.280Z,16.00
2018-09-27T08:08:50.515Z,16.30
2018-09-27T08:13:53.839Z,16.10
2018-09-27T08:18:57.079Z,16.20
2018-09-27T08:24:00.613Z,16.10
2018-09-27T08:29:03.848Z,16.10
2018-09-27T08:34:07.092Z,16.10
2018-09-27T08:39:11.895Z,16.30
2018-09-27T08:44:15.156Z,16.40
2018-09-27T08:49:18.384Z,16.40
2018-09-27T08:54:21.604Z,16.40
2018-09-27T08:59:24.824Z,16.30
2018-09-27T09:04:28.065Z,16.50
2018-09-27T09:09:31.388Z,16.60
2018-09-27T09:14:34.559Z,16.80
2018-09-27T09:19:37.827Z,16.80
2018-09-27T09:24:41.054Z,17.00
2018-09-27T09:29:44.425Z,16.90
2018-09-27T09:34:47.499Z,16.70
2018-09-27T09:39:50.924Z,17.10
2018-09-27T09:44:54.167Z,17.30
2018-09-27T09:49:57.399Z,17.10
2018-09-27T09:55:00.592Z,17.30
2018-09-27T10:00:03.825Z,17.20
2018-09-27T10:05:07.035Z,17.50
2018-09-27T10:10:10.257Z,17.60
2018-09-27T10:15:13.482Z,17.60
2018-09-27T10:20:16.704Z,17.90
2018-09-27T10:25:19.895Z,17.90
2018-09-27T10:30:23.120Z,17.80
2018-09-27T10:35:26.344Z,18.10
2018-09-27T10:40:29.566Z,18.20
2018-09-27T10:45:32.775Z,18.60
2018-09-27T10:50:36.034Z,18.50
2018-09-27T10:55:39.262Z,18.80
2018-09-27T11:00:42.481Z,18.70
2018-09-27T11:05:45.860Z,18.70
2018-09-27T11:10:48.981Z,18.80
2018-09-27T11:15:52.200Z,18.70
2018-09-27T11:20:55.428Z,19.00
2018-09-27T11:25:58.664Z,19.10
2018-09-27T11:31:07.272Z,19.00
2018-09-27T11:36:19.304Z,18.60
2018-09-27T11:41:22.495Z,19.30
2018-09-27T11:46:25.712Z,19.50
2018-09-27T11:51:28.948Z,19.20
2018-09-27T11:56:32.204Z,19.40
2018-09-27T12:01:35.506Z,19.40
2018-09-27T12:06:38.766Z,19.30
2018-09-27T12:11:41.904Z,19.10
2018-09-27T12:16:45.166Z,19.20
2018-09-27T12:21:48.492Z,19.10
2018-09-27T12:26:51.716Z,19.40
2018-09-27T12:31:54.946Z,19.20
2018-09-27T12:36:58.927Z,19.40
2018-09-27T12:42:02.463Z,19.50
2018-09-27T12:47:05.483Z,19.30
2018-09-27T12:52:09.041Z,19.00
2018-09-27T12:57:12.049Z,19.00
2018-09-27T13:02:15.325Z,19.50
2018-09-27T13:07:18.569Z,18.90
2018-09-27T13:12:24.073Z,19.00
2018-09-27T13:17:27.483Z,19.30
2018-09-27T13:22:32.334Z,19.20
2018-09-27T13:27:35.624Z,19.20
2018-09-27T13:32:38.947Z,19.10
2018-09-27T13:37:42.164Z,19.10
2018-09-27T13:42:45.503Z,19.00
2018-09-27T13:47:48.716Z,19.00
2018-09-27T13:52:51.966Z,19.30
2018-09-27T13:57:55.199Z,19.30
2018-09-27T14:02:58.444Z,19.00
2018-09-27T14:08:01.640Z,19.10
2018-09-27T14:13:04.888Z,19.20
2018-09-27T14:18:08.371Z,19.00
2018-09-27T14:23:11.611Z,19.30
2018-09-27T14:28:17.748Z,18.90
2018-09-27T14:33:20.950Z,19.20
2018-09-27T14:38:24.172Z,19.30
2018-09-27T14:43:27.545Z,19.20
2018-09-27T14:48:30.791Z,20.10
2018-09-27T14:53:34.073Z,20.00
2018-09-27T14:58:37.370Z,20.10
2018-09-27T15:03:40.595Z,20.30
2018-09-27T15:08:43.852Z,20.40
2018-09-27T15:13:47.091Z,20.70
2018-09-27T15:18:50.335Z,20.80
2018-09-27T15:23:53.590Z,21.00
2018-09-27T15:28:56.832Z,21.10
2018-09-27T15:34:00.096Z,21.10
2018-09-27T15:39:04.360Z,20.70
2018-09-27T15:44:07.595Z,20.60
2018-09-27T15:49:10.843Z,20.50
2018-09-27T15:54:14.059Z,20.50
2018-09-27T15:59:17.328Z,20.30
2018-09-27T16:04:20.889Z,20.40
2018-09-27T16:09:24.144Z,20.30
2018-09-27T16:14:27.360Z,20.30
2018-09-27T16:19:30.612Z,20.50
2018-09-27T16:24:34.034Z,20.80
2018-09-27T16:29:37.278Z,20.70
2018-09-27T16:34:40.538Z,20.60
2018-09-27T16:39:43.832Z,20.50
2018-09-27T16:44:47.142Z,20.50
2018-09-27T16:49:50.355Z,20.50
2018-09-27T16:54:53.579Z,20.60
2018-09-27T16:59:56.824Z,20.70
2018-09-27T17:05:00.028Z,20.50
2018-09-27T17:10:03.227Z,20.90
2018-09-27T17:15:06.528Z,20.90
2018-09-27T17:20:09.768Z,20.90
2018-09-27T17:25:12.976Z,20.50
2018-09-27T17:30:16.190Z,20.50
2018-09-27T17:35:19.416Z,20.50
2018-09-27T17:40:22.796Z,20.30
2018-09-27T17:45:25.916Z,20.30
2018-09-27T17:50:29.179Z,20.10
2018-09-27T17:55:32.410Z,20.10
2018-09-27T18:00:35.628Z,20.10
2018-09-27T18:05:38.955Z,20.20
2018-09-27T18:10:42.190Z,20.00
2018-09-27T18:15:45.440Z,20.00
2018-09-27T18:20:48.815Z,20.00
2018-09-27T18:25:52.028Z,19.90
2018-09-27T18:30:55.299Z,19.90
2018-09-27T18:35:58.550Z,19.90
2018-09-27T18:41:01.796Z,19.90
2018-09-27T18:46:05.029Z,19.70
2018-09-27T18:51:08.318Z,19.60
2018-09-27T18:56:11.624Z,19.50
2018-09-27T19:01:14.992Z,19.50
2018-09-27T19:06:18.528Z,19.50
2018-09-27T19:11:21.759Z,19.40
2018-09-27T19:16:25.468Z,19.30
2018-09-27T19:21:28.691Z,19.30
2018-09-27T19:26:31.936Z,19.30
2018-09-27T19:31:35.180Z,19.10
2018-09-27T19:36:38.399Z,19.30
2018-09-27T19:41:41.683Z,19.00
2018-09-27T19:46:44.911Z,19.00
2018-09-27T19:51:48.166Z,18.90
2018-09-27T19:56:51.394Z,18.90
2018-09-27T20:01:54.627Z,18.80
2018-09-27T20:06:57.879Z,18.90
2018-09-27T20:12:01.131Z,18.60
2018-09-27T20:17:04.364Z,18.90
2018-09-27T20:22:08.529Z,18.70
2018-09-27T20:27:11.927Z,18.80
2018-09-27T20:32:15.220Z,18.50
2018-09-27T20:37:18.452Z,18.50
2018-09-27T20:42:21.717Z,18.50
2018-09-27T20:47:24.935Z,18.70
2018-09-27T20:52:28.115Z,18.30
2018-09-27T20:57:31.347Z,18.60
2018-09-27T21:02:34.601Z,18.40
2018-09-27T21:07:37.820Z,18.40
2018-09-27T21:12:41.040Z,18.60
2018-09-27T21:17:44.242Z,18.60
2018-09-27T21:22:47.456Z,18.30
2018-09-27T21:27:50.663Z,18.30
2018-09-27T21:32:53.915Z,18.30
2018-09-27T21:37:57.165Z,18.40
2018-09-27T21:43:00.419Z,18.30
2018-09-27T21:48:03.672Z,18.10
2018-09-27T21:53:06.925Z,18.20
2018-09-27T21:58:10.169Z,18.00
2018-09-27T22:03:13.424Z,18.10
2018-09-27T22:08:16.651Z,18.20
2018-09-27T22:13:19.897Z,17.90
2018-09-27T22:18:23.171Z,18.00
2018-09-27T22:23:26.404Z,18.00
2018-09-27T22:28:29.654Z,17.90
2018-09-27T22:33:32.868Z,18.00
2018-09-27T22:38:36.107Z,18.00
2018-09-27T22:43:39.348Z,18.00
2018-09-27T22:48:42.571Z,17.90
2018-09-27T22:53:45.796Z,17.80
2018-09-27T22:58:49.007Z,18.10
2018-09-27T23:03:52.232Z,17.80
2018-09-27T23:08:55.452Z,17.80
2018-09-27T23:13:58.711Z,17.70
2018-09-27T23:19:02.105Z,17.70
2018-09-27T23:24:05.312Z,17.90
2018-09-27T23:29:08.675Z,17.70
2018-09-27T23:34:11.883Z,17.80
2018-09-27T23:39:15.100Z,17.40
2018-09-27T23:44:18.323Z,17.60
2018-09-27T23:49:21.545Z,17.80
2018-09-27T23:54:24.791Z,17.50
2018-09-27T23:59:27.999Z,17.50
